Wetterdaten: Mai 2013
Datum Temp Feuchte Luftdruck Regen Wind Richtung Sonnenschein UV Solar Windben
01.05.2013 10,4 C 74 % 1022,2 hPa 0,0 l/m 2,6 km/h SO 8,00 h 2,9 UV-I 383 W/m 7,6 km/h
02.05.2013 10,7 C 84 % 1020,0 hPa 0,0 l/m 0,9 km/h NO 0,50 h 1,6 UV-I 163 W/m 3,6 km/h
03.05.2013 12,2 C 78 % 1016,6 hPa 0,0 l/m 0,0 km/h NO 5,00 h 2,0 UV-I 284 W/m 0,0 km/h
04.05.2013 12,7 C 71 % 1017,2 hPa 0,0 l/m 0,3 km/h W-NW 9,57 h 2,5 UV-I 389 W/m 1,6 km/h
05.05.2013 12,7 C 75 % 1022,3 hPa 0,0 l/m 0,0 km/h S-SW 10,50 h 3,0 UV-I 418 W/m 0,8 km/h
06.05.2013 16,2 C 63 % 1018,6 hPa 0,0 l/m 0,4 km/h SO 9,33 h 2,9 UV-I 420 W/m 2,8 km/h
07.05.2013 13,7 C 91 % 1014,4 hPa 0,2 l/m 0,6 km/h N-NO 0,92 h 1,6 UV-I 159 W/m 4,4 km/h
08.05.2013 15,6 C 80 % 1011,1 hPa 0,2 l/m 5,1 km/h S 7,50 h 2,2 UV-I 341 W/m 10,5 km/h
09.05.2013 13,5 C 90 % 1011,4 hPa 0,6 l/m 0,7 km/h W 4,58 h 2,0 UV-I 250 W/m 5,6 km/h
10.05.2013 11,2 C 79 % 1013,9 hPa 0,0 l/m 1,5 km/h S-SW 4,83 h 2,3 UV-I 298 W/m 5,2 km/h
11.05.2013 9,9 C 84 % 1012,9 hPa 0,2 l/m 4,1 km/h S-SW 5,50 h 1,9 UV-I 245 W/m 6,8 km/h
12.05.2013 7,4 C 87 % 1013,9 hPa 3,0 l/m 2,0 km/h S-SW 3,83 h 1,9 UV-I 257 W/m 10,4 km/h
13.05.2013 9,0 C 94 % 1012,1 hPa 8,0 l/m 4,7 km/h S 0,50 h 1,2 UV-I 110 W/m 10,4 km/h
14.05.2013 9,4 C 85 % 1008,1 hPa 0,8 l/m 1,6 km/h S-SW 3,08 h 2,0 UV-I 227 W/m 4,0 km/h
15.05.2013 13,8 C 84 % 1001,3 hPa 0,0 l/m 8,1 km/h S 3,78 h 2,3 UV-I 265 W/m 14,1 km/h
16.05.2013 14,8 C 90 % 996,4 hPa 5,4 l/m 2,2 km/h N-NO 4,83 h 2,2 UV-I 274 W/m 10,1 km/h
17.05.2013 11,0 C 99 % 1000,7 hPa 12,0 l/m 1,0 km/h N-NW 0,00 h 0,9 UV-I 71 W/m 8,5 km/h
18.05.2013 8,3 C 96 % 1008,9 hPa 7,4 l/m 0,8 km/h W-SW 0,33 h 1,0 UV-I 98 W/m 7,7 km/h
19.05.2013 12,6 C 87 % 1007,5 hPa 0,2 l/m 0,5 km/h N-NO 10,33 h 3,0 UV-I 385 W/m 3,6 km/h
20.05.2013 11,0 C 94 % 1007,9 hPa 4,4 l/m 1,9 km/h S-SO 0,75 h 1,5 UV-I 151 W/m 4,8 km/h
21.05.2013 11,6 C 87 % 1008,2 hPa 8,2 l/m 2,9 km/h S 1,33 h 1,7 UV-I 187 W/m 6,4 km/h
22.05.2013 7,2 C 89 % 1009,3 hPa 11,0 l/m 10,8 km/h N-NW 0,00 h 1,1 UV-I 101 W/m 24,1 km/h
23.05.2013 4,1 C 96 % 1007,2 hPa 3,8 l/m 0,1 km/h NW 0,08 h 0,8 UV-I 72 W/m 0,4 km/h
24.05.2013 5,9 C 84 % 1012,2 hPa 1,2 l/m 0,3 km/h W 5,58 h 2,3 UV-I 288 W/m 2,0 km/h
25.05.2013 7,5 C 87 % 1012,0 hPa 5,2 l/m 1,2 km/h N-NW 5,75 h 2,4 UV-I 299 W/m 7,2 km/h
26.05.2013 7,9 C 98 % 1006,6 hPa 34,8 l/m 7,5 km/h NW 0,00 h 0,8 UV-I 48 W/m 30,5 km/h
27.05.2013 9,4 C 97 % 1008,6 hPa 4,6 l/m 2,3 km/h W-NW 0,67 h 1,6 UV-I 135 W/m 8,1 km/h
28.05.2013 13,3 C 78 % 1002,9 hPa 0,2 l/m 0,4 km/h SO 9,08 h 2,9 UV-I 396 W/m 2,0 km/h
29.05.2013 9,7 C 95 % 1000,8 hPa 4,4 l/m 1,3 km/h S-SW 0,50 h 1,2 UV-I 98 W/m 4,0 km/h
30.05.2013 12,0 C 83 % 1007,2 hPa 0,2 l/m 1,6 km/h N-NW 1,58 h 1,9 UV-I 214 W/m 6,4 km/h
31.05.2013 14,3 C 87 % 1006,1 hPa 3,4 l/m 3,9 km/h N-NW 0,42 h 1,0 UV-I 99 W/m 18,1 km/h
Min-Datum 23.05.13 06.05.13 16.05.13 23 Tage 01.05.13 - - - - 01.05.13
Min-Zeit 05:05 15:05 18:40 - 05:25 - - - - 05:25
Minimum 1,3 C 40 % 994,6 hPa - 0,0 km/h - - - - 0,0 km/h
Max-Datum 06.05.13 13.05.13 01.05.13 26.05.13 08.05.13 - 05.05.13 21.05.13 24.05.13 08.05.13
Max-Zeit 15:35 11:10 06:55 09:40 10:20 - 20:35 13:45 14:40 10:15
Maximum 23,1 C 100 % 1024,8 hPa 34,8 l/m 28,5 km/h
S
- 10,42 h 7,6 UV-I 1134 W/m 45,1 km/h
S-SO
Durchschnitt 10,9 C 86 % 1010,3 hPa #119,4 l/m 2,3 km/h N-NW #118:41 h 1,9 UV-I 230 W/m 7,5 km/h

Durchschnitt Minimum Temp.6,4 C
Durchschnitt Maximum Temp.15,5 C